sensor_id;sensor_type;location;lat;lon;timestamp;pressure;altitude;pressure_sealevel;temperature;humidity
25350;BME280;13302;48.796;11.978;2024-03-23T00:55:56;96191.88;;;11.26;40.79
25350;BME280;13302;48.796;11.978;2024-03-23T00:58:42;96188.66;;;11.24;40.51
25350;BME280;13302;48.796;11.978;2024-03-23T01:01:28;96193.84;;;11.26;40.15
25350;BME280;13302;48.796;11.978;2024-03-23T01:04:14;96195.41;;;11.23;40.28
25350;BME280;13302;48.796;11.978;2024-03-23T01:07:00;96183.84;;;11.18;40.50
25350;BME280;13302;48.796;11.978;2024-03-23T01:09:46;96185.50;;;11.22;40.06
25350;BME280;13302;48.796;11.978;2024-03-23T01:12:32;96180.56;;;11.12;40.09
25350;BME280;13302;48.796;11.978;2024-03-23T01:15:18;96171.00;;;11.06;40.30
25350;BME280;13302;48.796;11.978;2024-03-23T01:18:04;96171.75;;;11.03;40.13
25350;BME280;13302;48.796;11.978;2024-03-23T01:20:50;96173.28;;;11.00;39.94
25350;BME280;13302;48.796;11.978;2024-03-23T01:23:37;96165.00;;;11.00;39.68
25350;BME280;13302;48.796;11.978;2024-03-23T01:26:23;96157.44;;;10.97;40.28
25350;BME280;13302;48.796;11.978;2024-03-23T01:29:09;96159.28;;;10.90;39.92
25350;BME280;13302;48.796;11.978;2024-03-23T01:31:55;96155.66;;;10.86;39.83
25350;BME280;13302;48.796;11.978;2024-03-23T01:34:41;96164.72;;;10.83;39.99
25350;BME280;13302;48.796;11.978;2024-03-23T01:37:27;96152.53;;;10.87;39.82
25350;BME280;13302;48.796;11.978;2024-03-23T01:40:13;96143.00;;;10.85;39.79
25350;BME280;13302;48.796;11.978;2024-03-23T01:43:09;96139.03;;;10.82;39.51
25350;BME280;13302;48.796;11.978;2024-03-23T01:45:55;96135.03;;;10.80;39.51
25350;BME280;13302;48.796;11.978;2024-03-23T01:48:41;96136.88;;;10.72;39.98
25350;BME280;13302;48.796;11.978;2024-03-23T01:51:28;96130.94;;;10.70;39.88
25350;BME280;13302;48.796;11.978;2024-03-23T01:54:15;96130.84;;;10.67;39.72
25350;BME280;13302;48.796;11.978;2024-03-23T01:57:01;96122.56;;;10.67;39.88
25350;BME280;13302;48.796;11.978;2024-03-23T01:59:48;96110.63;;;10.63;39.67
25350;BME280;13302;48.796;11.978;2024-03-23T02:05:29;96101.94;;;10.61;39.29
25350;BME280;13302;48.796;11.978;2024-03-23T02:08:17;96102.28;;;10.59;39.65
25350;BME280;13302;48.796;11.978;2024-03-23T02:11:04;96093.91;;;10.55;38.98
25350;BME280;13302;48.796;11.978;2024-03-23T02:13:50;96094.59;;;10.49;39.49
25350;BME280;13302;48.796;11.978;2024-03-23T02:16:36;96100.13;;;10.49;39.21
25350;BME280;13302;48.796;11.978;2024-03-23T02:19:22;96102.75;;;10.42;39.00
25350;BME280;13302;48.796;11.978;2024-03-23T02:22:08;96102.41;;;10.43;38.84
25350;BME280;13302;48.796;11.978;2024-03-23T02:24:56;96095.25;;;10.42;38.90
25350;BME280;13302;48.796;11.978;2024-03-23T02:27:42;96087.66;;;10.36;39.03
25350;BME280;13302;48.796;11.978;2024-03-23T02:30:28;96087.59;;;10.32;39.13
25350;BME280;13302;48.796;11.978;2024-03-23T02:33:14;96086.00;;;10.31;39.25
25350;BME280;13302;48.796;11.978;2024-03-23T02:36:00;96087.09;;;10.27;39.78
25350;BME280;13302;48.796;11.978;2024-03-23T02:38:47;96080.06;;;10.29;39.57
25350;BME280;13302;48.796;11.978;2024-03-23T02:41:33;96073.41;;;10.34;39.67
25350;BME280;13302;48.796;11.978;2024-03-23T02:44:19;96073.50;;;10.37;39.52
25350;BME280;13302;48.796;11.978;2024-03-23T02:47:05;96060.53;;;10.41;39.83
25350;BME280;13302;48.796;11.978;2024-03-23T02:49:51;96061.00;;;10.47;39.78
25350;BME280;13302;48.796;11.978;2024-03-23T02:52:37;96062.66;;;10.51;39.33
25350;BME280;13302;48.796;11.978;2024-03-23T02:55:23;96057.97;;;10.55;39.69
25350;BME280;13302;48.796;11.978;2024-03-23T02:58:10;96058.13;;;10.63;39.40
25350;BME280;13302;48.796;11.978;2024-03-23T03:00:56;96050.22;;;10.61;39.09
25350;BME280;13302;48.796;11.978;2024-03-23T03:03:42;96050.31;;;10.68;38.96
25350;BME280;13302;48.796;11.978;2024-03-23T03:06:30;96050.38;;;10.72;39.09
25350;BME280;13302;48.796;11.978;2024-03-23T03:09:16;96043.78;;;10.80;38.64
25350;BME280;13302;48.796;11.978;2024-03-23T03:12:02;96038.75;;;10.85;38.95
25350;BME280;13302;48.796;11.978;2024-03-23T03:14:49;96028.16;;;10.91;38.79
25350;BME280;13302;48.796;11.978;2024-03-23T03:17:35;96029.75;;;10.92;38.66
25350;BME280;13302;48.796;11.978;2024-03-23T03:20:21;96027.81;;;10.96;38.51
25350;BME280;13302;48.796;11.978;2024-03-23T03:23:09;96032.56;;;10.95;38.49
25350;BME280;13302;48.796;11.978;2024-03-23T03:25:55;96024.25;;;10.95;38.51
25350;BME280;13302;48.796;11.978;2024-03-23T03:28:43;96021.56;;;10.99;38.24
25350;BME280;13302;48.796;11.978;2024-03-23T03:31:30;96009.34;;;11.03;37.96
25350;BME280;13302;48.796;11.978;2024-03-23T03:34:16;96007.78;;;11.02;38.29
25350;BME280;13302;48.796;11.978;2024-03-23T03:37:02;96006.28;;;11.09;38.05
25350;BME280;13302;48.796;11.978;2024-03-23T03:39:48;95999.53;;;11.06;38.13
25350;BME280;13302;48.796;11.978;2024-03-23T03:42:34;95998.00;;;11.12;37.85
25350;BME280;13302;48.796;11.978;2024-03-23T03:45:20;95984.53;;;11.07;38.07
25350;BME280;13302;48.796;11.978;2024-03-23T03:48:07;95976.66;;;11.09;37.80
25350;BME280;13302;48.796;11.978;2024-03-23T03:50:53;95967.94;;;11.07;37.64
25350;BME280;13302;48.796;11.978;2024-03-23T03:53:39;95975.31;;;10.99;37.63
25350;BME280;13302;48.796;11.978;2024-03-23T03:56:25;95961.03;;;10.94;38.08
25350;BME280;13302;48.796;11.978;2024-03-23T03:59:11;95956.63;;;10.89;38.16
25350;BME280;13302;48.796;11.978;2024-03-23T04:01:57;95959.81;;;10.91;38.16
25350;BME280;13302;48.796;11.978;2024-03-23T04:04:43;95964.97;;;10.93;38.21
25350;BME280;13302;48.796;11.978;2024-03-23T04:07:29;95960.75;;;11.02;37.98
25350;BME280;13302;48.796;11.978;2024-03-23T04:10:15;95954.50;;;11.09;37.88
25350;BME280;13302;48.796;11.978;2024-03-23T04:13:01;95954.84;;;11.04;38.02
25350;BME280;13302;48.796;11.978;2024-03-23T04:15:54;95946.50;;;11.00;38.09
25350;BME280;13302;48.796;11.978;2024-03-23T04:18:40;95938.59;;;10.99;38.40
25350;BME280;13302;48.796;11.978;2024-03-23T04:21:26;95932.31;;;11.02;38.45
25350;BME280;13302;48.796;11.978;2024-03-23T04:24:12;95937.09;;;11.05;38.24
25350;BME280;13302;48.796;11.978;2024-03-23T04:26:58;95932.31;;;11.02;38.03
25350;BME280;13302;48.796;11.978;2024-03-23T04:29:51;95933.47;;;11.01;38.22
25350;BME280;13302;48.796;11.978;2024-03-23T04:32:37;95919.69;;;11.04;38.33
25350;BME280;13302;48.796;11.978;2024-03-23T04:35:27;95915.38;;;11.07;38.02
25350;BME280;13302;48.796;11.978;2024-03-23T04:38:13;95913.81;;;11.10;38.15
25350;BME280;13302;48.796;11.978;2024-03-23T04:40:59;95902.00;;;11.13;38.33
25350;BME280;13302;48.796;11.978;2024-03-23T04:43:45;95901.66;;;11.18;37.96
25350;BME280;13302;48.796;11.978;2024-03-23T04:46:31;95892.19;;;11.19;38.26
25350;BME280;13302;48.796;11.978;2024-03-23T04:49:17;95894.56;;;11.20;38.12
25350;BME280;13302;48.796;11.978;2024-03-23T04:52:04;95899.38;;;11.23;38.34
25350;BME280;13302;48.796;11.978;2024-03-23T04:54:50;95899.78;;;11.25;37.93
25350;BME280;13302;48.796;11.978;2024-03-23T04:57:36;95895.84;;;11.26;37.93
25350;BME280;13302;48.796;11.978;2024-03-23T05:00:22;95886.38;;;11.27;38.14
25350;BME280;13302;48.796;11.978;2024-03-23T05:03:09;95888.75;;;11.29;37.82
25350;BME280;13302;48.796;11.978;2024-03-23T05:05:55;95880.88;;;11.31;38.16
25350;BME280;13302;48.796;11.978;2024-03-23T05:08:41;95885.59;;;11.30;38.05
25350;BME280;13302;48.796;11.978;2024-03-23T05:11:27;95877.66;;;11.29;37.78
25350;BME280;13302;48.796;11.978;2024-03-23T05:14:13;95875.72;;;11.29;37.70
25350;BME280;13302;48.796;11.978;2024-03-23T05:16:59;95874.94;;;11.32;37.70
25350;BME280;13302;48.796;11.978;2024-03-23T05:19:46;95869.47;;;11.36;37.75
25350;BME280;13302;48.796;11.978;2024-03-23T05:22:32;95866.69;;;11.36;37.86
25350;BME280;13302;48.796;11.978;2024-03-23T05:25:18;95865.09;;;11.35;37.88
25350;BME280;13302;48.796;11.978;2024-03-23T05:28:04;95861.56;;;11.38;37.62
25350;BME280;13302;48.796;11.978;2024-03-23T05:30:54;95865.13;;;11.38;37.88
25350;BME280;13302;48.796;11.978;2024-03-23T05:33:40;95858.03;;;11.41;37.64
25350;BME280;13302;48.796;11.978;2024-03-23T05:36:26;95864.78;;;11.43;37.64
25350;BME280;13302;48.796;11.978;2024-03-23T05:39:13;95856.09;;;11.45;37.91
25350;BME280;13302;48.796;11.978;2024-03-23T05:42:02;95862.06;;;11.47;37.54
25350;BME280;13302;48.796;11.978;2024-03-23T05:44:48;95851.34;;;11.45;37.52
25350;BME280;13302;48.796;11.978;2024-03-23T05:47:34;95845.44;;;11.47;37.48
25350;BME280;13302;48.796;11.978;2024-03-23T05:50:20;95854.16;;;11.49;37.52
25350;BME280;13302;48.796;11.978;2024-03-23T05:53:06;95852.63;;;11.51;37.56
25350;BME280;13302;48.796;11.978;2024-03-23T05:56:00;95856.56;;;11.50;37.67
25350;BME280;13302;48.796;11.978;2024-03-23T05:58:47;95846.72;;;11.53;37.67
25350;BME280;13302;48.796;11.978;2024-03-23T06:01:34;95836.06;;;11.55;37.68
25350;BME280;13302;48.796;11.978;2024-03-23T06:04:20;95833.69;;;11.57;37.52
25350;BME280;13302;48.796;11.978;2024-03-23T06:07:07;95823.03;;;11.59;37.57
25350;BME280;13302;48.796;11.978;2024-03-23T06:09:59;95818.31;;;11.60;37.59
25350;BME280;13302;48.796;11.978;2024-03-23T06:12:46;95808.03;;;11.60;37.59
25350;BME280;13302;48.796;11.978;2024-03-23T06:15:32;95797.75;;;11.61;37.76
25350;BME280;13302;48.796;11.978;2024-03-23T06:18:18;95782.72;;;11.62;37.63
25350;BME280;13302;48.796;11.978;2024-03-23T06:21:04;95780.38;;;11.64;37.29
25350;BME280;13302;48.796;11.978;2024-03-23T06:23:53;95789.84;;;11.63;37.26
25350;BME280;13302;48.796;11.978;2024-03-23T06:26:39;95779.97;;;11.65;37.61
25350;BME280;13302;48.796;11.978;2024-03-23T06:29:25;95766.56;;;11.67;37.43
25350;BME280;13302;48.796;11.978;2024-03-23T06:32:12;95761.03;;;11.67;37.48
25350;BME280;13302;48.796;11.978;2024-03-23T06:34:58;95747.97;;;11.68;37.56
25350;BME280;13302;48.796;11.978;2024-03-23T06:37:44;95743.25;;;11.68;37.45
25350;BME280;13302;48.796;11.978;2024-03-23T06:40:30;95752.69;;;11.60;37.43
25350;BME280;13302;48.796;11.978;2024-03-23T06:43:16;95744.78;;;11.66;37.53
25350;BME280;13302;48.796;11.978;2024-03-23T06:46:03;95759.84;;;11.68;37.62
25350;BME280;13302;48.796;11.978;2024-03-23T06:48:50;95747.56;;;11.69;37.55
25350;BME280;13302;48.796;11.978;2024-03-23T06:51:36;95744.44;;;11.71;37.63
25350;BME280;13302;48.796;11.978;2024-03-23T06:54:24;95742.09;;;11.73;37.95
25350;BME280;13302;48.796;11.978;2024-03-23T06:57:11;95744.06;;;11.76;38.01
25350;BME280;13302;48.796;11.978;2024-03-23T06:59:57;95752.78;;;11.78;37.87
25350;BME280;13302;48.796;11.978;2024-03-23T07:02:44;95755.59;;;11.81;37.90
25350;BME280;13302;48.796;11.978;2024-03-23T07:05:30;95748.06;;;11.82;37.71
25350;BME280;13302;48.796;11.978;2024-03-23T07:08:16;95741.78;;;11.85;38.05
25350;BME280;13302;48.796;11.978;2024-03-23T07:11:07;95743.34;;;11.86;37.79
25350;BME280;13302;48.796;11.978;2024-03-23T07:13:53;95742.16;;;11.87;37.76
25350;BME280;13302;48.796;11.978;2024-03-23T07:16:42;95733.06;;;11.90;37.97
25350;BME280;13302;48.796;11.978;2024-03-23T07:19:29;95733.50;;;11.92;37.67
25350;BME280;13302;48.796;11.978;2024-03-23T07:22:15;95730.34;;;11.93;37.91
25350;BME280;13302;48.796;11.978;2024-03-23T07:25:01;95731.91;;;11.94;37.74
25350;BME280;13302;48.796;11.978;2024-03-23T07:27:48;95730.38;;;11.97;38.16
25350;BME280;13302;48.796;11.978;2024-03-23T07:30:34;95729.97;;;11.98;37.98
25350;BME280;13302;48.796;11.978;2024-03-23T07:33:20;95749.34;;;12.02;38.13
25350;BME280;13302;48.796;11.978;2024-03-23T07:36:06;95756.50;;;12.07;38.11
25350;BME280;13302;48.796;11.978;2024-03-23T07:38:52;95778.31;;;12.12;37.71
25350;BME280;13302;48.796;11.978;2024-03-23T07:41:39;95791.81;;;12.20;38.01
25350;BME280;13302;48.796;11.978;2024-03-23T07:44:25;95824.28;;;12.23;38.04
25350;BME280;13302;48.796;11.978;2024-03-23T07:47:11;95850.84;;;12.28;37.88
25350;BME280;13302;48.796;11.978;2024-03-23T07:49:58;95850.44;;;12.26;37.86
25350;BME280;13302;48.796;11.978;2024-03-23T07:52:44;95882.03;;;12.14;38.43
25350;BME280;13302;48.796;11.978;2024-03-23T07:55:30;95898.56;;;12.04;38.39
25350;BME280;13302;48.796;11.978;2024-03-23T07:58:17;95928.31;;;12.10;38.33
25350;BME280;13302;48.796;11.978;2024-03-23T08:01:10;95922.28;;;11.98;39.17
25350;BME280;13302;48.796;11.978;2024-03-23T08:03:57;95933.78;;;12.03;38.60
25350;BME280;13302;48.796;11.978;2024-03-23T08:06:43;95937.97;;;11.86;39.45
25350;BME280;13302;48.796;11.978;2024-03-23T08:09:29;95953.41;;;11.84;39.86
25350;BME280;13302;48.796;11.978;2024-03-23T08:12:15;95952.59;;;11.83;39.25
25350;BME280;13302;48.796;11.978;2024-03-23T08:15:01;95949.81;;;11.80;39.10
25350;BME280;13302;48.796;11.978;2024-03-23T08:17:49;95959.59;;;11.70;39.40
25350;BME280;13302;48.796;11.978;2024-03-23T08:20:36;95955.94;;;11.63;39.73
25350;BME280;13302;48.796;11.978;2024-03-23T08:23:22;95949.13;;;11.53;39.74
25350;BME280;13302;48.796;11.978;2024-03-23T08:26:12;95950.75;;;11.58;39.27
25350;BME280;13302;48.796;11.978;2024-03-23T08:28:59;95953.91;;;11.56;39.27
25350;BME280;13302;48.796;11.978;2024-03-23T08:31:45;95955.38;;;11.50;39.22
25350;BME280;13302;48.796;11.978;2024-03-23T08:34:31;95958.88;;;11.43;39.27
25350;BME280;13302;48.796;11.978;2024-03-23T08:37:17;95957.72;;;11.44;39.32
25350;BME280;13302;48.796;11.978;2024-03-23T08:40:03;95963.31;;;11.18;39.97
25350;BME280;13302;48.796;11.978;2024-03-23T08:42:50;95956.28;;;11.24;39.89
25350;BME280;13302;48.796;11.978;2024-03-23T08:45:36;95969.25;;;11.20;39.79
25350;BME280;13302;48.796;11.978;2024-03-23T08:48:22;95972.25;;;11.04;40.19
25350;BME280;13302;48.796;11.978;2024-03-23T08:51:10;95966.81;;;11.12;40.22
25350;BME280;13302;48.796;11.978;2024-03-23T08:53:56;95971.91;;;11.10;39.95
25350;BME280;13302;48.796;11.978;2024-03-23T08:56:42;95966.38;;;11.10;39.99
25350;BME280;13302;48.796;11.978;2024-03-23T08:59:28;95959.50;;;10.96;40.58
25350;BME280;13302;48.796;11.978;2024-03-23T09:02:14;95968.59;;;10.97;40.61
25350;BME280;13302;48.796;11.978;2024-03-23T09:05:00;95974.81;;;10.90;40.55
25350;BME280;13302;48.796;11.978;2024-03-23T09:07:50;95988.25;;;10.92;40.71
25350;BME280;13302;48.796;11.978;2024-03-23T09:10:39;95993.78;;;10.92;40.56
25350;BME280;13302;48.796;11.978;2024-03-23T09:13:25;96000.69;;;11.05;40.50
25350;BME280;13302;48.796;11.978;2024-03-23T09:16:12;96002.53;;;10.94;40.66
25350;BME280;13302;48.796;11.978;2024-03-23T09:18:58;96008.47;;;10.96;40.64
25350;BME280;13302;48.796;11.978;2024-03-23T09:21:44;96001.38;;;10.95;40.41
25350;BME280;13302;48.796;11.978;2024-03-23T09:24:30;96005.25;;;10.90;40.10
25350;BME280;13302;48.796;11.978;2024-03-23T09:27:17;95993.78;;;10.92;40.44
25350;BME280;13302;48.796;11.978;2024-03-23T09:30:04;95982.84;;;10.99;39.94
25350;BME280;13302;48.796;11.978;2024-03-23T09:32:50;95995.75;;;10.91;40.10
25350;BME280;13302;48.796;11.978;2024-03-23T09:35:41;95987.75;;;10.83;40.67
25350;BME280;13302;48.796;11.978;2024-03-23T09:38:27;95999.44;;;10.73;41.29
25350;BME280;13302;48.796;11.978;2024-03-23T09:41:13;95998.53;;;10.91;40.83
25350;BME280;13302;48.796;11.978;2024-03-23T09:44:00;95998.28;;;10.74;40.67
25350;BME280;13302;48.796;11.978;2024-03-23T09:46:47;96012.22;;;10.81;40.67
25350;BME280;13302;48.796;11.978;2024-03-23T09:49:34;96014.06;;;10.73;40.50
25350;BME280;13302;48.796;11.978;2024-03-23T09:52:22;96013.06;;;10.85;40.57
25350;BME280;13302;48.796;11.978;2024-03-23T09:55:09;96029.25;;;10.83;40.34
25350;BME280;13302;48.796;11.978;2024-03-23T09:57:55;96018.94;;;10.83;40.35
25350;BME280;13302;48.796;11.978;2024-03-23T10:00:41;96027.78;;;10.92;40.46
25350;BME280;13302;48.796;11.978;2024-03-23T10:03:28;96023.03;;;10.93;40.17
25350;BME280;13302;48.796;11.978;2024-03-23T10:06:14;96020.88;;;10.79;40.27
25350;BME280;13302;48.796;11.978;2024-03-23T10:09:00;96035.63;;;10.87;40.16
25350;BME280;13302;48.796;11.978;2024-03-23T10:11:46;96027.38;;;10.90;39.74
25350;BME280;13302;48.796;11.978;2024-03-23T10:14:36;96022.91;;;10.82;39.87
25350;BME280;13302;48.796;11.978;2024-03-23T10:17:22;96039.16;;;10.87;39.52
25350;BME280;13302;48.796;11.978;2024-03-23T10:20:10;96036.19;;;10.73;39.92
25350;BME280;13302;48.796;11.978;2024-03-23T10:22:57;96063.09;;;10.76;39.20
25350;BME280;13302;48.796;11.978;2024-03-23T10:25:43;96068.66;;;10.80;39.23
25350;BME280;13302;48.796;11.978;2024-03-23T10:28:29;96054.25;;;10.67;38.79
25350;BME280;13302;48.796;11.978;2024-03-23T10:31:16;96074.25;;;10.83;38.98
25350;BME280;13302;48.796;11.978;2024-03-23T10:34:02;96076.28;;;10.86;38.21
25350;BME280;13302;48.796;11.978;2024-03-23T10:36:49;96075.63;;;10.96;37.83
25350;BME280;13302;48.796;11.978;2024-03-23T10:39:41;96085.84;;;10.92;37.39
25350;BME280;13302;48.796;11.978;2024-03-23T10:42:28;96103.69;;;10.95;36.94
25350;BME280;13302;48.796;11.978;2024-03-23T10:45:14;96092.44;;;10.84;35.95
25350;BME280;13302;48.796;11.978;2024-03-23T10:48:01;96091.81;;;10.94;35.44
25350;BME280;13302;48.796;11.978;2024-03-23T10:50:48;96098.06;;;10.91;34.90
25350;BME280;13302;48.796;11.978;2024-03-23T10:53:34;96103.00;;;10.79;34.24
25350;BME280;13302;48.796;11.978;2024-03-23T10:56:21;96100.38;;;10.86;34.95
25350;BME280;13302;48.796;11.978;2024-03-23T10:59:08;96093.59;;;10.83;35.13
25350;BME280;13302;48.796;11.978;2024-03-23T11:01:56;96098.22;;;10.76;35.42
25350;BME280;13302;48.796;11.978;2024-03-23T11:04:42;96105.97;;;10.89;34.92
25350;BME280;13302;48.796;11.978;2024-03-23T11:07:33;96111.44;;;10.86;34.92
25350;BME280;13302;48.796;11.978;2024-03-23T11:10:29;96121.63;;;10.82;34.46
25350;BME280;13302;48.796;11.978;2024-03-23T11:13:23;96116.91;;;10.59;34.41
25350;BME280;13302;48.796;11.978;2024-03-23T11:16:13;96109.34;;;10.56;34.71
25350;BME280;13302;48.796;11.978;2024-03-23T11:19:36;96125.19;;;10.59;34.85
25350;BME280;13302;48.796;11.978;2024-03-23T11:25:27;96135.50;;;10.63;35.53
25350;BME280;13302;48.796;11.978;2024-03-23T11:28:14;96154.22;;;10.69;35.64
25350;BME280;13302;48.796;11.978;2024-03-23T11:31:01;96149.84;;;10.68;35.70
25350;BME280;13302;48.796;11.978;2024-03-23T11:34:05;96153.09;;;10.74;35.44
25350;BME280;13302;48.796;11.978;2024-03-23T11:37:03;96185.41;;;10.70;35.03
25350;BME280;13302;48.796;11.978;2024-03-23T11:39:50;96192.97;;;10.73;35.71
25350;BME280;13302;48.796;11.978;2024-03-23T11:42:36;96214.78;;;10.78;35.36
25350;BME280;13302;48.796;11.978;2024-03-23T11:45:22;96212.72;;;10.75;35.56
25350;BME280;13302;48.796;11.978;2024-03-23T11:48:12;96201.31;;;10.76;35.00
25350;BME280;13302;48.796;11.978;2024-03-23T11:50:59;96192.16;;;10.72;35.08
25350;BME280;13302;48.796;11.978;2024-03-23T11:53:45;96194.69;;;10.81;34.82
25350;BME280;13302;48.796;11.978;2024-03-23T11:56:31;96184.97;;;10.68;34.88
25350;BME280;13302;48.796;11.978;2024-03-23T11:59:33;96187.78;;;10.71;34.85
25350;BME280;13302;48.796;11.978;2024-03-23T12:02:19;96177.53;;;10.72;35.15
25350;BME280;13302;48.796;11.978;2024-03-23T12:05:18;96180.69;;;10.70;34.86
25350;BME280;13302;48.796;11.978;2024-03-23T12:11:15;96173.34;;;10.58;34.01
25350;BME280;13302;48.796;11.978;2024-03-23T12:14:01;96176.63;;;10.64;34.13
25350;BME280;13302;48.796;11.978;2024-03-23T12:16:48;96151.06;;;10.71;33.36
25350;BME280;13302;48.796;11.978;2024-03-23T12:19:34;96160.59;;;10.73;33.44
25350;BME280;13302;48.796;11.978;2024-03-23T12:22:24;96179.56;;;10.75;33.38
25350;BME280;13302;48.796;11.978;2024-03-23T12:25:10;96184.84;;;10.61;33.67
25350;BME280;13302;48.796;11.978;2024-03-23T12:27:58;96187.16;;;10.58;33.17
25350;BME280;13302;48.796;11.978;2024-03-23T12:30:45;96185.59;;;10.57;33.38
25350;BME280;13302;48.796;11.978;2024-03-23T12:33:31;96182.84;;;10.57;32.39
25350;BME280;13302;48.796;11.978;2024-03-23T12:36:17;96179.38;;;10.64;32.81
25350;BME280;13302;48.796;11.978;2024-03-23T12:39:03;96181.94;;;10.53;32.21
25350;BME280;13302;48.796;11.978;2024-03-23T12:41:50;96189.56;;;10.60;31.89
25350;BME280;13302;48.796;11.978;2024-03-23T12:44:37;96181.72;;;10.62;32.42
25350;BME280;13302;48.796;11.978;2024-03-23T12:47:23;96199.88;;;10.63;32.32
25350;BME280;13302;48.796;11.978;2024-03-23T12:50:09;96191.38;;;10.52;31.98
25350;BME280;13302;48.796;11.978;2024-03-23T12:52:56;96189.84;;;10.55;31.47
25350;BME280;13302;48.796;11.978;2024-03-23T12:55:42;96187.16;;;10.58;31.79
25350;BME280;13302;48.796;11.978;2024-03-23T12:58:29;96179.31;;;10.61;32.12
25350;BME280;13302;48.796;11.978;2024-03-23T13:01:15;96153.66;;;10.60;31.98
25350;BME280;13302;48.796;11.978;2024-03-23T13:04:01;96145.06;;;10.65;32.24
25350;BME280;13302;48.796;11.978;2024-03-23T13:06:48;96170.13;;;10.56;32.20
25350;BME280;13302;48.796;11.978;2024-03-23T13:09:34;96174.59;;;10.61;32.18
25350;BME280;13302;48.796;11.978;2024-03-23T13:12:20;96182.16;;;10.64;32.22
25350;BME280;13302;48.796;11.978;2024-03-23T13:15:06;96174.22;;;10.63;31.28
25350;BME280;13302;48.796;11.978;2024-03-23T13:17:52;96189.84;;;10.55;31.70
25350;BME280;13302;48.796;11.978;2024-03-23T13:20:39;96188.97;;;10.51;31.69
25350;BME280;13302;48.796;11.978;2024-03-23T13:23:26;96191.97;;;10.42;31.57
25350;BME280;13302;48.796;11.978;2024-03-23T13:26:12;96193.00;;;10.53;31.59
25350;BME280;13302;48.796;11.978;2024-03-23T13:28:58;96189.41;;;10.53;31.70
25350;BME280;13302;48.796;11.978;2024-03-23T13:31:45;96188.34;;;10.57;31.69
25350;BME280;13302;48.796;11.978;2024-03-23T13:34:31;96176.41;;;10.53;31.50
25350;BME280;13302;48.796;11.978;2024-03-23T13:37:17;96180.19;;;10.65;31.20
25350;BME280;13302;48.796;11.978;2024-03-23T13:40:04;96178.88;;;10.58;31.38
25350;BME280;13302;48.796;11.978;2024-03-23T13:42:51;96191.38;;;10.52;31.15
25350;BME280;13302;48.796;11.978;2024-03-23T13:45:37;96191.13;;;10.57;31.12
25350;BME280;13302;48.796;11.978;2024-03-23T13:48:25;96189.47;;;10.56;30.83
25350;BME280;13302;48.796;11.978;2024-03-23T13:51:12;96195.25;;;10.48;30.87
25350;BME280;13302;48.796;11.978;2024-03-23T13:53:59;96193.00;;;10.53;30.75
25350;BME280;13302;48.796;11.978;2024-03-23T13:56:49;96190.59;;;10.52;30.73
25350;BME280;13302;48.796;11.978;2024-03-23T13:59:35;96193.00;;;10.53;30.78
25350;BME280;13302;48.796;11.978;2024-03-23T14:02:21;96195.38;;;10.55;30.88
25350;BME280;13302;48.796;11.978;2024-03-23T14:05:07;96203.47;;;10.64;30.10
25350;BME280;13302;48.796;11.978;2024-03-23T14:07:53;96205.25;;;10.56;29.76
25350;BME280;13302;48.796;11.978;2024-03-23T14:10:40;96213.22;;;10.57;30.14
25350;BME280;13302;48.796;11.978;2024-03-23T14:13:27;96212.75;;;10.55;30.14
25350;BME280;13302;48.796;11.978;2024-03-23T14:16:13;96204.09;;;10.57;29.93
25350;BME280;13302;48.796;11.978;2024-03-23T14:18:59;96204.63;;;10.43;30.30
25350;BME280;13302;48.796;11.978;2024-03-23T14:21:45;96217.44;;;10.32;30.46
25350;BME280;13302;48.796;11.978;2024-03-23T14:24:33;96209.66;;;10.38;30.16
25350;BME280;13302;48.796;11.978;2024-03-23T14:27:19;96217.44;;;10.32;30.58
25350;BME280;13302;48.796;11.978;2024-03-23T14:30:06;96215.44;;;10.29;30.71
25350;BME280;13302;48.796;11.978;2024-03-23T14:32:52;96216.13;;;10.26;30.50
25350;BME280;13302;48.796;11.978;2024-03-23T14:35:38;96225.38;;;10.14;30.95
25350;BME280;13302;48.796;11.978;2024-03-23T14:38:25;96202.63;;;10.02;31.11
25350;BME280;13302;48.796;11.978;2024-03-23T14:41:11;96200.59;;;9.99;31.03
25350;BME280;13302;48.796;11.978;2024-03-23T14:43:58;96213.66;;;10.02;31.21
25350;BME280;13302;48.796;11.978;2024-03-23T14:46:44;96205.38;;;10.02;31.55
25350;BME280;13302;48.796;11.978;2024-03-23T14:49:31;96194.34;;;10.02;31.34
25350;BME280;13302;48.796;11.978;2024-03-23T14:52:17;96199.56;;;10.07;31.38
25350;BME280;13302;48.796;11.978;2024-03-23T14:55:04;96182.94;;;10.03;31.56
25350;BME280;13302;48.796;11.978;2024-03-23T14:57:51;96180.19;;;10.03;31.21
25350;BME280;13302;48.796;11.978;2024-03-23T15:00:37;96204.59;;;10.01;31.17
25350;BME280;13302;48.796;11.978;2024-03-23T15:03:23;96205.66;;;9.97;31.16
25350;BME280;13302;48.796;11.978;2024-03-23T15:06:10;96213.19;;;9.96;30.98
25350;BME280;13302;48.796;11.978;2024-03-23T15:08:56;96205.59;;;9.93;31.17
25350;BME280;13302;48.796;11.978;2024-03-23T15:11:42;96184.84;;;9.99;31.28
25350;BME280;13302;48.796;11.978;2024-03-23T15:14:29;96175.28;;;9.97;30.78
25350;BME280;13302;48.796;11.978;2024-03-23T15:17:15;96163.75;;;9.91;30.93
25350;BME280;13302;48.796;11.978;2024-03-23T15:20:01;96166.13;;;9.93;30.88
25350;BME280;13302;48.796;11.978;2024-03-23T15:22:47;96165.06;;;9.97;30.76
25350;BME280;13302;48.796;11.978;2024-03-23T15:25:33;96161.88;;;9.95;31.11
25350;BME280;13302;48.796;11.978;2024-03-23T15:28:20;96168.19;;;9.96;30.92
25350;BME280;13302;48.796;11.978;2024-03-23T15:31:06;96170.56;;;9.97;31.01
25350;BME280;13302;48.796;11.978;2024-03-23T15:33:52;96187.81;;;9.91;31.18
25350;BME280;13302;48.796;11.978;2024-03-23T15:36:38;96180.69;;;9.90;31.15